Time;durP1;ratioP1;P1;durP2;ratioP2;P2;SDS_P1;SDS_P2;PMS_P1;PMS_P2;Temp;Humidity;BMP_temperature;BMP_pressure;BME280_temperature;BME280_humidity;BME280_pressure;Samples;Min_cycle;Max_cycle;Signal;HPM_P1;HPM_P2
2022/07/26 00:01:30;;;;;;;7.47;5.35;;;;;;;21.36;nan;99972.16;5009600;28;20033;-73
2022/07/26 00:03:56;;;;;;;6.03;5.32;;;;;;;21.37;nan;99997.81;5005149;28;20380;-74
2022/07/26 00:06:22;;;;;;;11.20;5.15;;;;;;;21.33;nan;100002.19;5009419;28;20030;-73
2022/07/26 00:08:48;;;;;;;11.10;5.50;;;;;;;21.27;nan;100014.16;5013262;28;20034;-74
2022/07/26 00:11:14;;;;;;;9.13;5.30;;;;;;;21.18;nan;99962.44;5011051;28;20026;-74
2022/07/26 00:13:40;;;;;;;6.40;5.15;;;;;;;21.12;nan;99972.47;5011057;28;20091;-73
2022/07/26 00:16:05;;;;;;;11.10;5.43;;;;;;;;;;5006856;28;20504;-73
2022/07/26 00:18:30;;;;;;;12.65;5.40;;;;;;;;;;5009923;28;20038;-74
2022/07/26 00:20:56;;;;;;;7.23;5.27;;;;;;;20.84;nan;99995.13;5013165;28;20049;-72
2022/07/26 00:23:22;;;;;;;7.55;5.38;;;;;;;20.80;nan;99978.84;5010359;28;20283;-73
2022/07/26 00:25:47;;;;;;;7.13;5.25;;;;;;;20.69;nan;99962.25;5002673;28;20052;-73
2022/07/26 00:28:13;;;;;;;9.65;5.35;;;;;;;20.64;nan;100002.50;5007546;28;20322;-74
2022/07/26 00:30:38;;;;;;;9.80;5.38;;;;;;;20.61;nan;99995.06;5010890;28;20034;-74
2022/07/26 00:33:04;;;;;;;13.25;5.43;;;;;;;;;;5008055;28;20029;-74
2022/07/26 00:35:30;;;;;;;7.40;5.20;;;;;;;20.45;nan;99988.44;5011890;28;20137;-74
2022/07/26 00:37:56;;;;;;;9.32;5.60;;;;;;;20.43;nan;99979.94;5009527;28;20121;-74
2022/07/26 00:40:22;;;;;;;10.23;6.13;;;;;;;20.43;nan;100017.38;5008976;28;20049;-72
2022/07/26 00:42:47;;;;;;;9.20;5.40;;;;;;;20.35;nan;99992.94;5009685;28;20041;-73
2022/07/26 00:45:14;;;;;;;8.43;5.85;;;;;;;20.36;nan;100001.75;5010640;28;20034;-74
2022/07/26 00:47:39;;;;;;;10.35;5.72;;;;;;;20.30;nan;99992.22;5010257;28;20041;-73
2022/07/26 00:50:09;;;;;;;8.95;5.85;;;;;;;;;;5010420;28;20037;-74
2022/07/26 00:52:35;;;;;;;9.82;5.60;;;;;;;20.18;nan;99982.88;5011759;28;20046;-74
2022/07/26 00:55:01;;;;;;;8.25;5.60;;;;;;;20.21;nan;100040.28;5008472;28;20516;-74
2022/07/26 00:57:27;;;;;;;8.98;5.57;;;;;;;20.19;nan;99987.09;5006976;28;20030;-73
2022/07/26 00:59:53;;;;;;;11.55;5.80;;;;;;;20.17;nan;99999.19;5011835;28;20070;-72
2022/07/26 01:02:19;;;;;;;9.13;6.15;;;;;;;20.14;nan;99979.19;5007897;28;20034;-72
2022/07/26 01:04:44;;;;;;;6.68;5.82;;;;;;;20.06;nan;99960.38;5007443;28;20065;-74
2022/07/26 01:07:11;;;;;;;14.57;6.70;;;;;;;20.08;nan;100003.66;5007078;28;20045;-73
2022/07/26 01:09:39;;;;;;;10.82;5.93;;;;;;;20.05;nan;99969.50;5010260;28;20124;-73
2022/07/26 01:12:05;;;;;;;10.93;6.23;;;;;;;19.98;nan;99980.59;5012678;28;20057;-74
2022/07/26 01:14:30;;;;;;;12.90;6.72;;;;;;;;;;5006951;28;20418;-73
2022/07/26 01:16:56;;;;;;;10.93;5.70;;;;;;;19.92;nan;99995.94;5007261;28;20419;-73
2022/07/26 01:19:21;;;;;;;9.13;6.07;;;;;;;19.80;nan;99976.94;5007773;28;20127;-73
2022/07/26 01:21:48;;;;;;;8.50;6.03;;;;;;;19.83;nan;99972.88;5009612;28;20042;-73
2022/07/26 01:24:14;;;;;;;7.65;5.90;;;;;;;19.70;nan;99974.44;5007735;28;20042;-72
2022/07/26 01:26:39;;;;;;;8.50;6.28;;;;;;;19.64;nan;100029.81;5009292;28;20046;-72
2022/07/26 01:29:05;;;;;;;9.95;6.05;;;;;;;19.64;nan;99962.25;5011107;28;20046;-72
2022/07/26 01:31:30;;;;;;;9.75;6.35;;;;;;;19.61;nan;99970.84;5010897;28;20088;-72
2022/07/26 01:33:56;;;;;;;8.52;5.95;;;;;;;19.46;nan;99966.56;5009498;28;20037;-74
2022/07/26 01:36:21;;;;;;;7.70;6.18;;;;;;;19.45;nan;99973.00;5009970;28;20092;-73
2022/07/26 01:38:47;;;;;;;11.80;6.55;;;;;;;19.41;nan;99972.00;5008943;28;20101;-73
2022/07/26 01:41:12;;;;;;;10.20;7.13;;;;;;;19.34;nan;99957.16;5011018;28;20487;-73
2022/07/26 01:43:38;;;;;;;10.80;6.72;;;;;;;19.32;nan;99963.88;5018011;28;20503;-73
2022/07/26 01:46:06;;;;;;;9.75;6.65;;;;;;;19.28;nan;99955.69;5010024;28;20029;-74
2022/07/26 01:48:31;;;;;;;11.18;6.93;;;;;;;19.23;nan;99891.69;5001655;28;20116;-74
2022/07/26 01:50:57;;;;;;;13.43;6.95;;;;;;;19.21;nan;99947.25;5011232;28;20061;-73
2022/07/26 01:53:22;;;;;;;9.88;6.50;;;;;;;19.17;nan;99948.91;5011193;28;20061;-74
2022/07/26 01:55:48;;;;;;;8.77;7.00;;;;;;;;;;5006885;28;20033;-73
2022/07/26 01:58:13;;;;;;;14.93;7.05;;;;;;;19.12;nan;99951.69;5010173;28;20494;-73
2022/07/26 02:00:39;;;;;;;8.75;7.10;;;;;;;19.07;nan;99911.75;5010308;28;20038;-74
2022/07/26 02:03:04;;;;;;;12.82;6.82;;;;;;;19.06;nan;99974.22;5011341;28;20037;-73
2022/07/26 02:05:30;;;;;;;9.43;7.05;;;;;;;19.05;nan;99927.25;5009848;28;20037;-73
2022/07/26 02:07:55;;;;;;;8.75;7.00;;;;;;;19.01;nan;99959.06;5008551;28;20511;-73
2022/07/26 02:10:21;;;;;;;13.15;7.40;;;;;;;18.97;nan;99957.28;5009174;28;20566;-73
2022/07/26 02:12:46;;;;;;;12.02;6.90;;;;;;;18.94;nan;99958.66;5010828;28;20049;-73
2022/07/26 02:15:13;;;;;;;10.30;7.80;;;;;;;18.96;nan;99966.34;5008652;28;20042;-75
2022/07/26 02:17:39;;;;;;;12.93;7.00;;;;;;;18.96;nan;99972.47;5009580;28;20038;-74
2022/07/26 02:20:06;;;;;;;10.20;7.03;;;;;;;18.89;nan;99962.19;5009063;28;20180;-74
2022/07/26 02:22:32;;;;;;;10.05;7.38;;;;;;;18.91;nan;100024.06;5007156;28;20381;-74
2022/07/26 02:24:57;;;;;;;12.93;8.07;;;;;;;18.79;nan;99924.97;5007034;28;20034;-73
2022/07/26 02:27:24;;;;;;;12.35;8.20;;;;;;;;;;5006413;28;20060;-73
2022/07/26 02:29:49;;;;;;;9.82;6.78;;;;;;;18.84;nan;99975.63;5007821;28;20057;-74
2022/07/26 02:32:15;;;;;;;10.88;6.70;;;;;;;18.81;nan;99959.38;5009358;28;20467;-73
2022/07/26 02:34:40;;;;;;;16.65;7.85;;;;;;;18.77;nan;99943.19;5009860;28;20076;-73
2022/07/26 02:37:06;;;;;;;11.45;7.53;;;;;;;;;;5007881;28;20037;-73
2022/07/26 02:39:31;;;;;;;13.02;7.35;;;;;;;18.80;nan;99921.25;5009798;28;20037;-73
2022/07/26 02:41:58;;;;;;;11.63;7.30;;;;;;;18.85;nan;99950.50;5011347;28;20484;-73
2022/07/26 02:44:25;;;;;;;12.07;7.20;;;;;;;18.89;nan;99961.38;5008085;28;20062;-72
2022/07/26 02:46:52;;;;;;;9.23;7.13;;;;;;;18.90;nan;99936.28;5007901;28;20036;-74
2022/07/26 02:49:18;;;;;;;12.40;7.22;;;;;;;18.94;nan;99955.97;5007331;28;20034;-74
2022/07/26 02:51:44;;;;;;;14.82;7.20;;;;;;;18.97;nan;99954.59;5007221;28;20046;-71
2022/07/26 02:54:10;;;;;;;16.30;7.57;;;;;;;18.92;nan;99971.50;5010566;28;20044;-72
2022/07/26 02:56:35;;;;;;;13.13;7.35;;;;;;;18.98;nan;99958.84;5003783;28;20030;-73
2022/07/26 02:59:01;;;;;;;11.77;7.35;;;;;;;18.96;nan;100051.72;5008682;28;20087;-75
2022/07/26 03:01:26;;;;;;;12.45;7.63;;;;;;;18.89;nan;99967.53;5011354;28;20037;-72
2022/07/26 03:03:52;;;;;;;10.85;7.45;;;;;;;18.86;nan;99972.63;5008023;28;20088;-73
2022/07/26 03:06:18;;;;;;;15.40;7.80;;;;;;;18.76;nan;99957.56;5009144;28;20030;-73
2022/07/26 03:08:44;;;;;;;13.23;7.85;;;;;;;;;;5010577;28;20044;-74
2022/07/26 03:11:10;;;;;;;11.55;7.43;;;;;;;18.62;nan;100026.03;5010774;28;20721;-73
2022/07/26 03:13:35;;;;;;;16.95;8.10;;;;;;;18.68;nan;99960.88;5008848;28;20092;-73
2022/07/26 03:16:00;;;;;;;14.82;8.30;;;;;;;18.64;nan;99951.88;5008093;28;20088;-73
2022/07/26 03:18:26;;;;;;;22.75;8.90;;;;;;;18.60;nan;99953.53;5008359;28;20037;-73
2022/07/26 03:20:51;;;;;;;14.10;7.90;;;;;;;18.55;nan;100005.03;5007789;28;20061;-74
2022/07/26 03:23:17;;;;;;;14.52;7.88;;;;;;;18.56;nan;99958.66;5011150;28;20044;-74
2022/07/26 03:25:42;;;;;;;17.10;7.88;;;;;;;18.60;nan;99964.97;5008899;28;20057;-73
2022/07/26 03:28:08;;;;;;;16.23;8.30;;;;;;;18.54;nan;99933.38;5009164;28;20212;-72
2022/07/26 03:30:34;;;;;;;11.38;8.10;;;;;;;18.52;nan;99941.63;5009367;28;20116;-73
2022/07/26 03:33:00;;;;;;;17.73;8.05;;;;;;;18.48;nan;99929.97;5005671;28;20033;-74
2022/07/26 03:35:25;;;;;;;14.18;8.63;;;;;;;18.45;nan;100011.31;5007775;28;20558;-73
2022/07/26 03:37:51;;;;;;;14.57;8.23;;;;;;;18.50;nan;99947.25;5008965;28;20053;-73
2022/07/26 03:40:17;;;;;;;16.60;8.40;;;;;;;18.49;nan;99953.66;5010883;28;20029;-71
2022/07/26 03:42:44;;;;;;;14.25;8.18;;;;;;;18.39;nan;99931.69;5027057;28;20034;-74
2022/07/26 03:45:10;;;;;;;16.65;8.55;;;;;;;18.41;nan;99965.00;5012306;28;20026;-71
2022/07/26 03:47:36;;;;;;;15.30;7.90;;;;;;;18.42;nan;99963.13;5009773;28;20037;-74
2022/07/26 03:50:01;;;;;;;16.30;8.07;;;;;;;;;;5011321;28;20412;-74
2022/07/26 03:52:27;;;;;;;18.00;8.73;;;;;;;;;;5010780;28;20030;-73
2022/07/26 03:54:52;;;;;;;13.40;8.63;;;;;;;18.36;nan;99949.03;5006135;28;20057;-72
2022/07/26 03:57:18;;;;;;;11.70;7.65;;;;;;;18.34;nan;99940.56;4999816;28;20887;-71
2022/07/26 03:59:43;;;;;;;14.18;8.20;;;;;;;18.33;nan;99960.28;5003996;28;20045;-72
2022/07/26 04:02:08;;;;;;;20.25;8.30;;;;;;;18.41;nan;99886.88;5003555;28;20112;-74
2022/07/26 04:04:34;;;;;;;20.00;7.78;;;;;;;;;;5008734;28;20164;-74
2022/07/26 04:06:59;;;;;;;13.52;7.40;;;;;;;18.44;nan;99934.31;5004652;28;20590;-74
2022/07/26 04:09:24;;;;;;;15.68;7.78;;;;;;;18.58;nan;99948.50;5002227;28;20416;-75
2022/07/26 04:11:50;;;;;;;13.27;7.68;;;;;;;;;;5005360;28;20488;-73
2022/07/26 04:14:15;;;;;;;15.43;7.75;;;;;;;18.57;nan;99943.44;5005233;28;20128;-72
2022/07/26 04:16:41;;;;;;;15.38;7.57;;;;;;;18.66;nan;99955.81;5007986;28;20038;-73
2022/07/26 04:19:06;;;;;;;24.15;7.70;;;;;;;;;;5004912;28;20049;-73
2022/07/26 04:21:31;;;;;;;12.43;7.68;;;;;;;18.75;nan;99925.81;5013231;28;20029;-72
2022/07/26 04:23:57;;;;;;;15.43;7.70;;;;;;;18.85;nan;99947.06;5009787;28;20466;-73
2022/07/26 04:26:23;;;;;;;18.58;7.32;;;;;;;18.89;nan;99938.19;5010536;28;20033;-72
2022/07/26 04:28:49;;;;;;;17.10;8.20;;;;;;;18.93;nan;99909.03;5005741;28;20037;-73
2022/07/26 04:31:14;;;;;;;12.80;7.45;;;;;;;19.01;nan;99945.72;5006232;28;20037;-70
2022/07/26 04:33:40;;;;;;;13.55;7.80;;;;;;;19.07;nan;99994.47;4999745;28;20088;-73
2022/07/26 04:36:05;;;;;;;18.35;8.18;;;;;;;19.13;nan;99946.06;5008986;28;20657;-73
2022/07/26 04:38:31;;;;;;;16.83;7.40;;;;;;;19.21;nan;99941.13;5002177;28;20038;-70
2022/07/26 04:40:56;;;;;;;20.75;8.73;;;;;;;19.28;nan;99945.00;5007095;28;20025;-74
2022/07/26 04:43:23;;;;;;;11.75;8.32;;;;;;;19.37;nan;99931.78;5009169;28;20033;-73
2022/07/26 04:45:48;;;;;;;19.08;9.35;;;;;;;;;;5012803;28;20054;-73
2022/07/26 04:48:14;;;;;;;17.83;8.45;;;;;;;19.57;nan;99957.31;5012807;28;20071;-72
2022/07/26 04:50:40;;;;;;;20.13;8.38;;;;;;;19.59;nan;99941.78;5006846;28;20455;-72
2022/07/26 04:53:06;;;;;;;16.92;8.48;;;;;;;19.73;nan;99942.59;5011122;28;20046;-72
2022/07/26 04:55:31;;;;;;;16.13;8.57;;;;;;;;;;5009888;28;20030;-72
2022/07/26 04:57:57;;;;;;;16.27;7.95;;;;;;;19.82;nan;99940.00;5006649;28;20029;-72
2022/07/26 05:00:23;;;;;;;13.57;8.10;;;;;;;19.85;nan;99982.19;5013000;28;20484;-72
2022/07/26 05:02:54;;;;;;;20.05;7.57;;;;;;;20.01;nan;99947.13;5011225;28;20034;-72
2022/07/26 05:05:21;;;;;;;16.42;7.95;;;;;;;20.07;nan;99945.94;5009932;28;20073;-72
2022/07/26 05:07:52;;;;;;;17.15;7.82;;;;;;;20.14;nan;99941.78;5005581;28;20034;-72
2022/07/26 05:10:19;;;;;;;14.95;7.72;;;;;;;20.23;nan;99957.09;5009431;28;20084;-71
2022/07/26 05:12:45;;;;;;;20.73;9.00;;;;;;;20.31;nan;99922.44;5010369;28;20042;-72
2022/07/26 05:15:11;;;;;;;15.68;7.53;;;;;;;;;;5005953;28;20060;-73
2022/07/26 05:17:37;;;;;;;19.87;7.97;;;;;;;20.43;nan;99923.78;5008032;28;20404;-69
2022/07/26 05:20:03;;;;;;;14.63;8.30;;;;;;;20.54;nan;99950.00;5010960;28;20287;-70
2022/07/26 05:22:29;;;;;;;20.83;8.20;;;;;;;20.62;nan;99953.09;5010244;28;20036;-71
2022/07/26 05:24:54;;;;;;;23.40;7.88;;;;;;;20.73;nan;99949.84;5012079;28;20085;-73
2022/07/26 05:27:19;;;;;;;18.08;8.10;;;;;;;20.82;nan;99940.00;5011458;28;20040;-74
2022/07/26 05:29:45;;;;;;;21.77;7.82;;;;;;;20.90;nan;99948.38;5006114;28;20042;-76
2022/07/26 05:32:10;;;;;;;21.27;8.13;;;;;;;21.02;nan;99944.06;5009729;28;20095;-70
2022/07/26 05:34:36;;;;;;;19.20;7.68;;;;;;;21.14;nan;99898.00;5009514;28;20547;-71
2022/07/26 05:37:01;;;;;;;17.10;8.38;;;;;;;21.24;nan;99935.22;5011094;28;20048;-71
2022/07/26 05:39:26;;;;;;;17.58;6.95;;;;;;;21.35;nan;99946.44;5010543;28;20034;-69
2022/07/26 05:41:52;;;;;;;19.20;7.93;;;;;;;21.43;nan;99878.00;5011319;28;20025;-68
2022/07/26 05:44:18;;;;;;;13.00;7.45;;;;;;;21.55;nan;99947.03;5011466;28;20440;-69
2022/07/26 05:46:43;;;;;;;12.45;7.65;;;;;;;21.62;nan;99926.75;5008363;28;20084;-72
2022/07/26 05:49:09;;;;;;;19.17;7.50;;;;;;;21.76;nan;99931.97;5005377;28;20543;-71
2022/07/26 05:51:35;;;;;;;12.23;7.05;;;;;;;21.91;nan;99935.31;5006741;28;20046;-74
2022/07/26 05:54:00;;;;;;;14.98;7.43;;;;;;;21.98;nan;99935.66;5011259;28;20477;-71
2022/07/26 05:56:25;;;;;;;21.90;7.28;;;;;;;22.03;nan;99932.84;5012265;28;20064;-72
2022/07/26 05:58:51;;;;;;;14.10;7.18;;;;;;;22.19;nan;99911.72;5014158;28;20502;-71
2022/07/26 06:01:16;;;;;;;13.23;6.70;;;;;;;22.39;nan;99945.22;5011670;28;20030;-70
2022/07/26 06:03:42;;;;;;;15.50;7.35;;;;;;;22.54;nan;99939.38;5009213;28;20045;-70
2022/07/26 06:06:07;;;;;;;13.15;7.22;;;;;;;22.62;nan;99946.63;5012016;28;20053;-72
2022/07/26 06:08:34;;;;;;;16.63;7.13;;;;;;;22.76;nan;99929.56;5012120;28;20036;-71
2022/07/26 06:11:00;;;;;;;12.40;6.57;;;;;;;22.84;nan;99934.13;5011864;28;20029;-71
2022/07/26 06:13:25;;;;;;;19.00;8.65;;;;;;;23.00;nan;99926.41;5012147;28;20038;-73
2022/07/26 06:15:51;;;;;;;11.40;7.60;;;;;;;23.17;nan;99941.69;5009514;28;20550;-72
2022/07/26 06:18:16;;;;;;;12.13;6.78;;;;;;;23.28;nan;99932.16;5010208;28;20036;-71
2022/07/26 06:20:43;;;;;;;14.50;7.18;;;;;;;23.38;nan;99942.56;5010125;28;20037;-70
2022/07/26 06:23:10;;;;;;;12.85;7.47;;;;;;;23.48;nan;99931.44;5010562;28;20120;-70
2022/07/26 06:25:35;;;;;;;19.90;7.05;;;;;;;23.50;nan;99992.94;5008712;28;20041;-72
2022/07/26 06:28:02;;;;;;;12.43;7.20;;;;;;;23.57;nan;99956.38;5009130;28;20033;-70
2022/07/26 06:30:28;;;;;;;16.30;6.75;;;;;;;23.68;nan;99913.81;5010913;28;20418;-70
2022/07/26 06:32:53;;;;;;;12.00;7.63;;;;;;;;;;5011556;28;20034;-70
2022/07/26 06:35:19;;;;;;;13.67;6.57;;;;;;;23.90;nan;99923.53;5011831;28;20065;-71
2022/07/26 06:37:44;;;;;;;13.65;7.05;;;;;;;24.03;nan;99915.53;5011594;28;20267;-71
2022/07/26 06:40:10;;;;;;;12.02;6.78;;;;;;;24.17;nan;99908.78;5011800;28;20026;-71
2022/07/26 06:42:37;;;;;;;20.20;6.90;;;;;;;24.35;nan;99909.44;5010408;28;20384;-70
2022/07/26 06:45:03;;;;;;;9.70;6.53;;;;;;;24.42;nan;99955.44;5011552;28;20030;-71
2022/07/26 06:47:29;;;;;;;14.60;7.10;;;;;;;24.57;nan;99937.94;5011607;28;20056;-71
2022/07/26 06:49:54;;;;;;;17.63;7.25;;;;;;;24.60;nan;99914.94;5011745;28;20038;-71
2022/07/26 06:52:20;;;;;;;14.95;7.03;;;;;;;24.92;nan;99944.91;5011316;28;20030;-70
2022/07/26 06:54:46;;;;;;;16.27;6.95;;;;;;;24.96;nan;99898.09;5009883;28;20048;-70
2022/07/26 06:57:11;;;;;;;12.65;6.80;;;;;;;25.09;nan;99931.25;5008925;28;20037;-70
2022/07/26 06:59:37;;;;;;;11.38;6.40;;;;;;;25.11;nan;99890.50;5014135;28;20475;-71
2022/07/26 07:02:03;;;;;;;11.82;6.68;;;;;;;25.31;nan;99897.75;5011231;28;20034;-71
2022/07/26 07:04:30;;;;;;;13.82;6.32;;;;;;;25.39;nan;99907.63;5011006;28;20048;-71
2022/07/26 07:07:01;;;;;;;12.73;6.45;;;;;;;25.49;nan;99898.31;5011412;28;20034;-71
2022/07/26 07:09:27;;;;;;;12.48;6.72;;;;;;;25.62;nan;99996.94;5011495;28;20030;-71
2022/07/26 07:11:53;;;;;;;14.75;6.43;;;;;;;25.78;nan;99918.06;5009972;28;20042;-71
2022/07/26 07:14:18;;;;;;;12.27;6.30;;;;;;;25.83;nan;99836.91;5024747;28;20400;-71
2022/07/26 07:16:43;;;;;;;15.32;6.63;;;;;;;25.98;nan;99919.88;5010362;28;20030;-72
2022/07/26 07:19:09;;;;;;;13.98;6.55;;;;;;;26.03;nan;99852.19;5015362;28;20033;-72
2022/07/26 07:21:34;;;;;;;12.35;6.57;;;;;;;26.25;nan;99895.97;5013895;28;20445;-72
2022/07/26 07:24:00;;;;;;;17.13;6.68;;;;;;;26.27;nan;99874.81;5012841;28;20046;-71
2022/07/26 07:26:25;;;;;;;13.63;6.70;;;;;;;26.39;nan;99909.06;5015009;28;20515;-72
2022/07/26 07:28:50;;;;;;;10.23;6.65;;;;;;;26.43;nan;99899.91;5012678;28;20038;-71
2022/07/26 07:31:16;;;;;;;10.27;6.50;;;;;;;26.55;nan;99930.75;5015148;28;20041;-71
2022/07/26 07:33:41;;;;;;;10.13;5.88;;;;;;;26.66;nan;99894.00;5013757;28;20479;-71
2022/07/26 07:36:07;;;;;;;9.05;6.00;;;;;;;26.85;nan;99898.75;5014980;28;20088;-72
2022/07/26 07:38:32;;;;;;;9.85;6.20;;;;;;;26.98;nan;99904.84;5007759;28;20037;-72
2022/07/26 07:40:58;;;;;;;11.38;6.45;;;;;;;27.09;nan;99919.44;5015017;28;20040;-72
2022/07/26 07:43:23;;;;;;;10.98;6.18;;;;;;;27.20;nan;99885.38;5017096;28;20060;-71
2022/07/26 07:45:49;;;;;;;10.82;6.03;;;;;;;27.37;nan;99903.16;5014579;28;20109;-72
2022/07/26 07:48:14;;;;;;;9.57;5.90;;;;;;;27.46;nan;99922.66;5014487;28;20052;-72
2022/07/26 07:50:39;;;;;;;11.57;5.63;;;;;;;27.52;nan;99901.56;5013867;28;20045;-72
2022/07/26 07:53:05;;;;;;;7.70;5.25;;;;;;;27.63;nan;99910.72;5009832;28;20361;-71
2022/07/26 07:55:30;;;;;;;12.35;5.78;;;;;;;27.72;nan;99897.75;5014136;28;20034;-71
2022/07/26 07:57:56;;;;;;;8.75;5.75;;;;;;;27.89;nan;99907.44;5013992;28;20026;-73
2022/07/26 08:00:21;;;;;;;15.15;6.10;;;;;;;28.08;nan;99920.22;5017281;28;20096;-71
2022/07/26 08:02:46;;;;;;;9.07;5.55;;;;;;;28.17;nan;99909.19;5014168;28;20030;-70
2022/07/26 08:05:13;;;;;;;7.13;5.22;;;;;;;28.21;nan;99904.63;5014643;28;20030;-72
2022/07/26 08:07:39;;;;;;;6.18;5.50;;;;;;;28.36;nan;99911.13;5011234;28;20030;-70
2022/07/26 08:10:05;;;;;;;7.15;5.80;;;;;;;28.45;nan;99911.69;5014570;28;20033;-71
2022/07/26 08:12:30;;;;;;;9.32;5.68;;;;;;;28.50;nan;99868.09;5013801;28;20029;-72
2022/07/26 08:14:56;;;;;;;12.95;5.40;;;;;;;28.68;nan;99897.41;5012551;28;20095;-70
2022/07/26 08:17:21;;;;;;;13.80;5.45;;;;;;;28.74;nan;99913.03;5013989;28;20032;-71
2022/07/26 08:19:47;;;;;;;13.38;5.47;;;;;;;28.80;nan;99851.97;5014094;28;20433;-71
2022/07/26 08:22:12;;;;;;;9.18;5.10;;;;;;;28.89;nan;99891.59;5012784;28;20034;-71
2022/07/26 08:24:38;;;;;;;9.18;5.10;;;;;;;28.95;nan;99846.78;5013771;28;20050;-73
2022/07/26 08:27:03;;;;;;;8.63;4.75;;;;;;;29.04;nan;99899.63;5010162;28;20036;-70
2022/07/26 08:29:30;;;;;;;8.45;4.78;;;;;;;29.10;nan;99893.94;5011470;28;20042;-71
2022/07/26 08:31:55;;;;;;;9.13;5.10;;;;;;;29.20;nan;99901.44;5012139;28;20065;-71
2022/07/26 08:34:21;;;;;;;7.40;4.65;;;;;;;29.28;nan;99894.97;5013778;28;20526;-71
2022/07/26 08:36:47;;;;;;;6.80;5.13;;;;;;;29.36;nan;99942.00;5012197;28;20063;-70
2022/07/26 08:39:12;;;;;;;11.45;5.13;;;;;;;29.46;nan;99893.31;5012513;28;20041;-71
2022/07/26 08:41:39;;;;;;;6.45;4.97;;;;;;;29.56;nan;99880.28;5013550;28;20546;-70
2022/07/26 08:44:06;;;;;;;13.00;5.05;;;;;;;29.66;nan;99901.34;5011299;28;20104;-71
2022/07/26 08:46:37;;;;;;;10.38;5.07;;;;;;;29.83;nan;99940.78;5013437;28;20057;-70
2022/07/26 08:49:05;;;;;;;5.82;4.75;;;;;;;29.99;nan;99883.59;5010641;28;20029;-72
2022/07/26 08:51:31;;;;;;;7.47;5.50;;;;;;;30.04;nan;99831.69;5011427;28;20108;-70
2022/07/26 08:54:00;;;;;;;10.93;4.50;;;;;;;30.15;nan;99892.34;5011787;28;20548;-73
2022/07/26 08:56:25;;;;;;;6.95;4.75;;;;;;;30.20;nan;99874.94;5013598;28;20088;-72
2022/07/26 08:58:51;;;;;;;9.57;4.95;;;;;;;30.27;nan;99886.69;5012225;28;20432;-71
2022/07/26 09:01:16;;;;;;;9.02;4.75;;;;;;;30.33;nan;99884.41;5012242;28;20036;-71
2022/07/26 09:03:44;;;;;;;10.15;4.47;;;;;;;30.43;nan;99882.97;5011430;28;20457;-71
2022/07/26 09:06:15;;;;;;;8.15;4.40;;;;;;;30.50;nan;99872.16;5013238;28;20022;-71
2022/07/26 09:08:41;;;;;;;5.93;4.47;;;;;;;30.53;nan;99882.31;5012781;28;20038;-73
2022/07/26 09:11:22;;;;;;;9.75;4.72;;;;;;;30.65;nan;99868.44;5013236;28;20030;-71
2022/07/26 09:13:59;;;;;;;8.25;4.43;;;;;;;30.71;nan;99861.50;5007051;28;20124;-71
2022/07/26 09:16:25;;;;;;;5.95;4.72;;;;;;;30.85;nan;99865.53;5009195;28;20432;-71
2022/07/26 09:18:51;;;;;;;5.35;4.68;;;;;;;30.90;nan;99860.53;5011128;28;20032;-72
2022/07/26 09:21:37;;;;;;;9.20;4.65;;;;;;;30.96;nan;99880.03;5010477;28;20087;-72
2022/07/26 09:24:03;;;;;;;4.60;3.88;;;;;;;31.07;nan;99861.84;5009303;28;20046;-71
2022/07/26 09:26:29;;;;;;;12.45;4.55;;;;;;;31.14;nan;99872.75;5011389;28;20041;-70
2022/07/26 09:29:03;;;;;;;5.22;4.30;;;;;;;31.24;nan;99887.59;5012072;28;20034;-72
2022/07/26 09:31:29;;;;;;;9.23;4.75;;;;;;;31.32;nan;99866.69;5012185;28;20037;-72
2022/07/26 09:33:54;;;;;;;11.75;4.55;;;;;;;31.37;nan;99880.72;5011901;28;20127;-71
2022/07/26 09:36:20;;;;;;;7.75;4.40;;;;;;;31.40;nan;99871.03;5009400;28;20025;-71
2022/07/26 09:38:45;;;;;;;7.10;4.60;;;;;;;31.50;nan;99886.66;5011280;28;20079;-71
2022/07/26 09:41:20;;;;;;;5.03;4.53;;;;;;;31.56;nan;99920.53;5009410;28;20049;-72
2022/07/26 09:43:46;;;;;;;9.32;4.50;;;;;;;31.58;nan;99866.50;5011427;28;20037;-71
2022/07/26 09:46:12;;;;;;;6.22;4.13;;;;;;;31.67;nan;99909.69;5011277;28;20037;-71
2022/07/26 09:48:38;;;;;;;5.25;4.72;;;;;;;31.74;nan;99928.00;5010388;28;20081;-71
2022/07/26 09:51:07;;;;;;;7.20;4.50;;;;;;;31.74;nan;99914.41;5012231;28;20141;-71
2022/07/26 09:53:39;;;;;;;9.27;4.35;;;;;;;31.87;nan;99884.88;5010175;28;20038;-72
2022/07/26 09:56:04;;;;;;;4.50;3.90;;;;;;;31.88;nan;99870.13;5010121;28;20042;-71
2022/07/26 09:58:30;;;;;;;4.97;4.35;;;;;;;31.91;nan;99897.34;5008438;28;20095;-71
2022/07/26 10:00:55;;;;;;;4.90;3.97;;;;;;;31.96;nan;99928.94;5013017;28;20031;-71
2022/07/26 10:03:21;;;;;;;6.07;3.92;;;;;;;31.99;nan;99876.44;5012131;28;20037;-70
2022/07/26 10:05:47;;;;;;;5.03;4.03;;;;;;;31.99;nan;99882.66;5010189;28;20324;-72
2022/07/26 10:08:13;;;;;;;4.53;4.13;;;;;;;32.03;nan;99860.09;5010295;28;20500;-70
2022/07/26 10:10:44;;;;;;;6.70;4.18;;;;;;;32.05;nan;99874.13;5008876;28;20691;-71
2022/07/26 10:13:09;;;;;;;5.97;3.90;;;;;;;32.04;nan;99861.66;5007857;28;20045;-70
2022/07/26 10:15:46;;;;;;;7.82;4.45;;;;;;;32.07;nan;99866.34;5009621;28;20034;-71
2022/07/26 10:18:42;;;;;;;8.60;4.93;;;;;;;32.18;nan;99864.41;5008286;28;20379;-71
2022/07/26 10:21:25;;;;;;;5.63;4.20;;;;;;;32.19;nan;99895.97;5005665;28;20515;-71
2022/07/26 10:24:01;;;;;;;6.25;4.15;;;;;;;32.41;nan;99877.72;5009577;28;20172;-70
2022/07/26 10:26:30;;;;;;;5.93;4.43;;;;;;;32.47;nan;99865.28;4990496;28;20057;-71
2022/07/26 10:29:15;;;;;;;5.25;3.65;;;;;;;32.55;nan;99868.81;4992231;28;20038;-71
2022/07/26 10:31:42;;;;;;;5.22;3.63;;;;;;;32.65;nan;99872.72;4983677;28;20030;-71
2022/07/26 10:34:08;;;;;;;9.30;5.20;;;;;;;32.76;nan;99876.25;4987973;28;20114;-70
2022/07/26 10:36:36;;;;;;;7.18;4.10;;;;;;;32.76;nan;99851.72;4988170;28;20041;-70
2022/07/26 10:39:07;;;;;;;5.97;3.88;;;;;;;32.78;nan;99882.88;4984569;28;20034;-68
2022/07/26 10:41:35;;;;;;;5.70;3.70;;;;;;;32.80;nan;99866.91;4989057;28;20121;-67
2022/07/26 10:44:21;;;;;;;9.27;4.05;;;;;;;32.86;nan;99867.28;4989868;28;20034;-70
2022/07/26 10:46:53;;;;;;;5.22;3.95;;;;;;;32.93;nan;99852.88;4988322;28;20688;-71
2022/07/26 10:49:19;;;;;;;5.22;3.90;;;;;;;33.01;nan;99884.44;4990004;28;20045;-70
2022/07/26 10:51:44;;;;;;;8.02;4.10;;;;;;;33.11;nan;99845.47;4990392;28;20045;-70
2022/07/26 10:54:12;;;;;;;6.72;4.28;;;;;;;33.19;nan;99868.88;4985070;28;20118;-70
2022/07/26 10:56:37;;;;;;;5.07;3.90;;;;;;;33.23;nan;99855.97;4989885;28;20041;-71
2022/07/26 10:59:04;;;;;;;5.82;4.50;;;;;;;33.18;nan;99836.50;4993347;28;20034;-70
2022/07/26 11:01:39;;;;;;;7.47;4.63;;;;;;;33.28;nan;99856.75;4990518;28;20052;-71
2022/07/26 11:04:06;;;;;;;5.95;4.65;;;;;;;33.22;nan;99846.25;4991136;28;20033;-70
2022/07/26 11:06:32;;;;;;;5.00;4.30;;;;;;;33.34;nan;99902.38;4986253;28;20058;-71
2022/07/26 11:08:57;;;;;;;5.45;4.38;;;;;;;33.33;nan;99846.25;4989614;28;20551;-68
2022/07/26 11:11:31;;;;;;;4.88;4.38;;;;;;;33.40;nan;99851.69;4991365;28;20053;-67
2022/07/26 11:14:05;;;;;;;5.50;4.30;;;;;;;33.33;nan;99843.53;4988354;28;20129;-69
2022/07/26 11:16:41;;;;;;;9.63;4.40;;;;;;;33.33;nan;99840.78;4986489;28;20084;-68
2022/07/26 11:19:20;;;;;;;5.22;4.22;;;;;;;33.39;nan;99852.06;4988508;28;20034;-68
2022/07/26 11:21:56;;;;;;;5.60;4.07;;;;;;;33.43;nan;99823.59;4989776;28;20034;-68
2022/07/26 11:24:21;;;;;;;6.43;4.28;;;;;;;33.54;nan;99823.56;4991175;28;20073;-68
2022/07/26 11:26:47;;;;;;;5.45;4.32;;;;;;;33.67;nan;99843.06;5009814;28;20054;-67
2022/07/26 11:29:13;;;;;;;7.72;4.60;;;;;;;33.76;nan;99823.50;5008606;28;20134;-69
2022/07/26 11:31:43;;;;;;;7.82;4.30;;;;;;;33.87;nan;99802.38;5005895;28;20052;-70
2022/07/26 11:34:18;;;;;;;6.13;4.22;;;;;;;34.05;nan;99824.94;5010466;28;20036;-69
2022/07/26 11:36:45;;;;;;;6.65;4.38;;;;;;;34.16;nan;99830.34;5002340;28;20037;-68
2022/07/26 11:39:21;;;;;;;12.13;4.32;;;;;;;34.24;nan;99820.16;5017011;28;20034;-68
2022/07/26 11:41:47;;;;;;;6.68;4.35;;;;;;;34.26;nan;99829.50;5002210;28;20494;-69
2022/07/26 11:44:20;;;;;;;4.82;4.30;;;;;;;34.41;nan;99811.06;5004255;28;20108;-68
2022/07/26 11:46:46;;;;;;;7.25;4.85;;;;;;;34.50;nan;99810.59;5005734;28;20133;-72
2022/07/26 11:49:17;;;;;;;9.93;4.38;;;;;;;34.55;nan;99795.72;5006747;28;20476;-71
2022/07/26 11:52:01;;;;;;;8.23;4.07;;;;;;;34.59;nan;99832.03;5001339;28;20066;-72